EW4169 Weather Reports


Display with metric or nautical units.
time (UTC)temp
F
wind
direction
speed
MPH
gust
MPH
rain 1hr
in
rain 24hr
in
rain mn
in
humidity
%
barometer
mb
20240224154539 29 298 9.0 14.0 0.00 0.01 0.00 66 1007.6
20240224153007 30 350 5.0 11.0 0.00 0.01 0.00 69 1007.4
20240224151538 29 320 5.0 13.0 0.00 0.01 0.00 69 1007.2
20240224150008 29 302 9.0 13.0 0.00 0.01 0.00 70 1007.3
20240224144534 28 296 9.0 15.0 0.00 0.01 0.00 70 1007.1
20240224143001 28 301 9.0 14.0 0.00 0.01 0.00 70 1006.9
20240224141530 28 310 10.0 15.0 0.00 0.01 0.00 69 1006.6
20240224140056 29 337 11.0 15.0 0.00 0.01 0.00 70 1006.4
20240224134534 29 301 6.0 13.0 0.00 0.01 0.00 70 1006.2
20240224133051 29 295 10.0 18.0 0.00 0.01 0.00 70 1006.1
20240224131519 29 301 9.0 12.0 0.00 0.01 0.00 70 1005.6
20240224130047 29 297 8.0 13.0 0.00 0.01 0.00 70 1005.3
20240224124510 29 320 4.0 11.0 0.00 0.01 0.00 73 1004.9
20240224123057 29 333 8.0 13.0 0.00 0.01 0.00 73 1004.5
20240224121506 30 308 8.0 17.0 0.00 0.01 0.00 74 1004.3
20240224120033 30 302 7.0 18.0 0.00 0.01 0.00 72 1003.9
20240224114601 30 314 9.0 17.0 0.00 0.01 0.00 74 1003.8
20240224113026 30 299 5.0 9.0 0.00 0.01 0.00 78 1003.6
20240224111552 31 290 9.0 16.0 0.00 0.01 0.00 78 1003.3
20240224110020 31 297 8.0 13.0 0.00 0.01 0.00 79 1003.3
20240224104605 32 309 8.0 13.0 0.00 0.01 0.00 79 1003.1
20240224103014 32 302 6.0 13.0 0.00 0.01 0.00 80 1002.9
20240224101542 32 295 9.0 13.0 0.00 0.01 0.00 80 1002.8
20240224100007 33 300 9.0 15.0 0.00 0.01 0.00 80 1002.7
20240224094532 33 295 9.0 17.0 0.00 0.01 0.00 81 1002.5
20240224093004 33 297 11.0 16.0 0.00 0.01 0.00 82 1002.3
20240224091533 33 299 9.0 14.0 0.00 0.01 0.00 83 1002.2
20240224090102 34 290 7.0 13.0 0.00 0.01 0.00 82 1002.1
20240224084526 34 292 8.0 12.0 0.00 0.01 0.00 82 1002.1
20240224083058 35 293 8.0 12.0 0.00 0.01 0.00 82 1002.0
20240224081526 35 296 9.0 16.0 0.00 0.01 0.00 81 1001.9
20240224080052 36 290 9.0 16.0 0.00 0.01 0.00 81 1001.9
20240224074521 37 300 9.0 13.0 0.00 0.01 0.00 82 1001.8
20240224073107 37 271 7.0 12.0 0.00 0.01 0.00 82 1001.8
20240224071507 38 287 7.0 11.0 0.00 0.01 0.00 83 1001.6
20240224070036 38 292 7.0 13.0 0.00 0.02 0.00 83 1001.5
20240224064503 38 265 3.0 12.0 0.00 0.02 0.00 82 1001.4
20240224063037 38 293 6.0 11.0 0.00 0.02 0.00 82 1001.4
20240224061602 38 304 9.0 12.0 0.00 0.02 0.00 82 1001.4
20240224060029 39 300 7.0 13.0 0.00 0.04 0.00 81 1001.5
20240224054557 39 302 7.0 16.0 0.00 0.04 0.00 80 1001.1
20240224053023 39 297 6.0 13.0 0.00 0.04 0.00 80 1000.9
20240224051553 40 300 6.0 13.0 0.00 0.04 0.00 80 1000.8
20240224050017 40 276 9.0 14.0 0.00 0.08 0.04 80 1000.6
20240224044547 41 290 13.0 21.0 0.00 0.08 0.04 79 1000.5
20240224043011 41 316 12.0 17.0 0.00 0.08 0.04 81 1000.6
20240224041538 42 272 4.0 11.0 0.00 0.08 0.04 81 1000.4
20240224040018 42 299 7.0 13.0 0.00 0.13 0.04 80 1000.1
20240224034536 41 303 5.0 10.0 0.00 0.13 0.04 83 999.9
20240224033010 39 321 1.0 3.0 0.00 0.13 0.04 89 1000.0
20240224031549 39 68 0.0 1.0 0.00 0.13 0.04 87 999.8
20240224030013 40 69 0.0 4.0 0.00 0.15 0.04 86 999.7
20240224024540 41 333 3.0 8.0 0.00 0.15 0.04 85 999.8
20240224023010 42 313 7.0 15.0 0.00 0.15 0.04 83 999.7
20240224021549 41 313 3.0 7.0 0.00 0.15 0.04 86 999.7
20240224020017 42 282 1.0 3.0 0.01 0.16 0.04 84 999.6
20240224014537 42 274 2.0 9.0 0.01 0.16 0.04 84 999.7
20240224013059 42 269 2.0 9.0 0.01 0.16 0.04 83 999.4
20240224011534 41 214 10.0 15.0 0.01 0.16 0.04 86 999.3
20240224010056 38 250 1.0 2.0 0.00 0.15 0.03 84 999.0
20240224004526 39 250 0.0 0.0 0.00 0.16 0.03 82 999.0
20240224003050 39 249 0.0 2.0 0.00 0.16 0.03 81 998.9
20240224001522 41 249 0.0 1.0 0.00 0.16 0.03 78 999.0
20240224000051 42 249 0.0 0.0 0.00 0.16 0.03 72 998.8
20240223234534 46 249 0.0 2.0 0.00 0.18 0.03 67 999.0
20240223233048 47 249 1.0 5.0 0.00 0.18 0.03 66 998.9
20240223231524 48 257 3.0 5.0 0.00 0.18 0.03 65 998.8
20240223230041 48 248 1.0 4.0 0.00 0.18 0.03 62 998.8
20240223224504 49 277 3.0 8.0 0.00 0.18 0.03 60 998.7
20240223223048 50 288 6.0 10.0 0.00 0.18 0.03 59 998.5
20240223221513 51 257 6.0 10.0 0.00 0.18 0.03 58 998.4
20240223220058 51 276 4.0 8.0 0.00 0.18 0.03 57 998.4
20240223214512 52 278 5.0 12.0 0.00 0.18 0.03 57 998.3
20240223213039 52 290 6.0 11.0 0.00 0.18 0.03 57 998.1
20240223211514 52 286 4.0 11.0 0.00 0.18 0.03 56 997.9
20240223210057 52 304 5.0 11.0 0.00 0.19 0.03 59 997.8
20240223204507 51 282 5.0 15.0 0.00 0.19 0.03 59 997.9
20240223203033 51 298 5.0 12.0 0.00 0.19 0.03 58 997.9
20240223201505 51 304 6.0 11.0 0.00 0.19 0.03 57 998.0
20240223200032 51 296 8.0 14.0 0.00 0.22 0.03 61 998.1
20240223194600 51 269 5.0 11.0 0.00 0.22 0.03 62 998.1
20240223193025 50 279 6.0 11.0 0.00 0.22 0.03 67 998.2
20240223191600 49 289 7.0 12.0 0.00 0.22 0.03 66 998.3
20240223190015 49 283 7.0 13.0 0.00 0.28 0.03 67 998.4
20240223184543 48 299 6.0 10.0 0.00 0.28 0.03 69 998.5
20240223183010 47 228 3.0 8.0 0.00 0.28 0.03 74 998.8
20240223181533 46 290 4.0 7.0 0.00 0.28 0.03 75 999.2
20240223180100 45 276 4.0 9.0 0.00 0.28 0.03 76 999.4
20240223174527 45 301 4.0 10.0 0.00 0.34 0.03 78 999.7
20240223173052 43 344 4.0 9.0 0.00 0.34 0.03 80 999.9
20240223171518 44 314 6.0 9.0 0.00 0.34 0.03 79 1000.2
20240223170048 44 295 7.0 11.0 0.00 0.34 0.03 81 1000.3
20240223164512 44 302 5.0 9.0 0.00 0.34 0.03 84 1000.4
20240223163039 42 332 6.0 10.0 0.00 0.34 0.03 86 1000.6
20240223161503 42 304 6.0 11.0 0.00 0.34 0.03 86 1000.6
20240223160041 41 304 5.0 9.0 0.00 0.34 0.03 87 1000.8